Innis, Louisiana
Current Conditions -  °F | °C
As of 5:15 AM on Thursday 23 Oct 2014 (Local Time) from KHZR Reporting Station
Clear Clear  
Wind Chill: 51°   Ceiling: Unl
Heat Index: 51°   Visibility: 10mi
Dew Point: 47°   Wind: 3mph
Humidity: 84%   Direction: 20°NNE
Pressure: 30.1"   Gusts: NA
Location:  30.88°N, 91.68°W
Report Text: KHZR 231015Z AUTO 02003KT 10SM CLR 11/08 A3010 RMK AO2 T01070081
Loading
Personal Weather Stations






























Interactive Weather Map
Tropical Storm Tracking
New forecast layout! Learn more

10-Day Weather Forecast

Advertisements
Track Severe Weather on mobile